sensor_id;sensor_type;location;lat;lon;timestamp;pressure;altitude;pressure_sealevel;temperature;humidity
48810;BME280;40070;47.322;18.784;2022-12-29T00:00:44;1009.55;;;2.42;66.05
48810;BME280;40070;47.322;18.784;2022-12-29T00:02:46;1009.56;;;2.52;65.97
48810;BME280;40070;47.322;18.784;2022-12-29T00:04:49;1009.58;;;2.42;66.06
48810;BME280;40070;47.322;18.784;2022-12-29T00:06:52;1009.57;;;2.41;65.82
48810;BME280;40070;47.322;18.784;2022-12-29T00:08:54;1009.61;;;2.41;65.75
48810;BME280;40070;47.322;18.784;2022-12-29T00:10:56;1009.60;;;2.30;65.76
48810;BME280;40070;47.322;18.784;2022-12-29T00:12:59;1009.60;;;2.19;66.37
48810;BME280;40070;47.322;18.784;2022-12-29T00:15:01;1009.58;;;2.29;66.28
48810;BME280;40070;47.322;18.784;2022-12-29T00:17:04;1009.59;;;2.15;67.04
48810;BME280;40070;47.322;18.784;2022-12-29T00:19:06;1009.59;;;2.05;67.60
48810;BME280;40070;47.322;18.784;2022-12-29T00:21:18;1009.61;;;1.89;68.47
48810;BME280;40070;47.322;18.784;2022-12-29T00:23:21;1009.64;;;1.71;69.62
48810;BME280;40070;47.322;18.784;2022-12-29T00:25:23;1009.61;;;1.66;70.08
48810;BME280;40070;47.322;18.784;2022-12-29T00:27:26;1009.53;;;1.87;69.20
48810;BME280;40070;47.322;18.784;2022-12-29T00:29:29;1009.53;;;2.11;67.77
48810;BME280;40070;47.322;18.784;2022-12-29T00:31:31;1009.56;;;1.96;67.89
48810;BME280;40070;47.322;18.784;2022-12-29T00:33:34;1009.50;;;2.12;67.52
48810;BME280;40070;47.322;18.784;2022-12-29T00:35:39;1009.45;;;2.10;67.95
48810;BME280;40070;47.322;18.784;2022-12-29T00:37:46;1009.50;;;2.23;67.54
48810;BME280;40070;47.322;18.784;2022-12-29T00:39:49;1009.43;;;2.27;67.23
48810;BME280;40070;47.322;18.784;2022-12-29T00:41:51;1009.45;;;2.14;67.71
48810;BME280;40070;47.322;18.784;2022-12-29T00:43:54;1009.43;;;2.02;67.94
48810;BME280;40070;47.322;18.784;2022-12-29T00:45:56;1009.46;;;1.77;68.54
48810;BME280;40070;47.322;18.784;2022-12-29T00:47:58;1009.50;;;2.11;67.55
48810;BME280;40070;47.322;18.784;2022-12-29T00:50:01;1009.55;;;2.09;67.27
48810;BME280;40070;47.322;18.784;2022-12-29T00:52:07;1009.56;;;2.11;66.94
48810;BME280;40070;47.322;18.784;2022-12-29T00:54:10;1009.64;;;1.86;67.39
48810;BME280;40070;47.322;18.784;2022-12-29T00:56:12;1009.58;;;1.95;67.48
48810;BME280;40070;47.322;18.784;2022-12-29T00:58:15;1009.58;;;2.06;67.11
48810;BME280;40070;47.322;18.784;2022-12-29T01:00:17;1009.56;;;2.07;66.96
48810;BME280;40070;47.322;18.784;2022-12-29T01:02:19;1009.55;;;2.07;66.80
48810;BME280;40070;47.322;18.784;2022-12-29T01:04:23;1009.54;;;2.07;66.84
48810;BME280;40070;47.322;18.784;2022-12-29T01:06:26;1009.50;;;2.04;66.90
48810;BME280;40070;47.322;18.784;2022-12-29T01:08:28;1009.55;;;2.03;66.74
48810;BME280;40070;47.322;18.784;2022-12-29T01:10:30;1009.52;;;2.10;66.55
48810;BME280;40070;47.322;18.784;2022-12-29T01:12:33;1009.51;;;2.04;66.57
48810;BME280;40070;47.322;18.784;2022-12-29T01:14:36;1009.53;;;1.96;66.72
48810;BME280;40070;47.322;18.784;2022-12-29T01:16:38;1009.48;;;1.98;66.71
48810;BME280;40070;47.322;18.784;2022-12-29T01:18:41;1009.42;;;1.62;67.85
48810;BME280;40070;47.322;18.784;2022-12-29T01:20:43;1009.44;;;1.63;67.98
48810;BME280;40070;47.322;18.784;2022-12-29T01:22:45;1009.45;;;1.28;70.36
48810;BME280;40070;47.322;18.784;2022-12-29T01:24:48;1009.45;;;1.65;69.75
48810;BME280;40070;47.322;18.784;2022-12-29T01:26:51;1009.50;;;1.51;69.72
48810;BME280;40070;47.322;18.784;2022-12-29T01:28:53;1009.50;;;1.69;69.51
48810;BME280;40070;47.322;18.784;2022-12-29T01:30:56;1009.49;;;1.87;68.94
48810;BME280;40070;47.322;18.784;2022-12-29T01:33:01;1009.52;;;1.78;68.95
48810;BME280;40070;47.322;18.784;2022-12-29T01:35:04;1009.44;;;1.92;68.65
48810;BME280;40070;47.322;18.784;2022-12-29T01:37:06;1009.43;;;1.88;68.47
48810;BME280;40070;47.322;18.784;2022-12-29T01:39:09;1009.45;;;1.76;68.85
48810;BME280;40070;47.322;18.784;2022-12-29T01:41:12;1009.44;;;1.71;68.95
48810;BME280;40070;47.322;18.784;2022-12-29T01:43:15;1009.44;;;1.84;68.74
48810;BME280;40070;47.322;18.784;2022-12-29T01:45:17;1009.46;;;1.83;68.17
48810;BME280;40070;47.322;18.784;2022-12-29T01:47:28;1009.44;;;1.93;67.96
48810;BME280;40070;47.322;18.784;2022-12-29T01:49:32;1009.46;;;1.89;68.28
48810;BME280;40070;47.322;18.784;2022-12-29T01:51:41;1009.49;;;1.84;68.53
48810;BME280;40070;47.322;18.784;2022-12-29T01:53:45;1009.43;;;1.86;68.11
48810;BME280;40070;47.322;18.784;2022-12-29T01:55:48;1009.41;;;1.86;68.02
48810;BME280;40070;47.322;18.784;2022-12-29T01:57:52;1009.40;;;1.80;68.38
48810;BME280;40070;47.322;18.784;2022-12-29T01:59:56;1009.32;;;1.97;68.15
48810;BME280;40070;47.322;18.784;2022-12-29T02:02:00;1009.32;;;1.92;68.32
48810;BME280;40070;47.322;18.784;2022-12-29T02:04:03;1009.35;;;1.40;70.41
48810;BME280;40070;47.322;18.784;2022-12-29T02:06:10;1009.31;;;1.55;70.64
48810;BME280;40070;47.322;18.784;2022-12-29T02:08:14;1009.27;;;1.73;70.22
48810;BME280;40070;47.322;18.784;2022-12-29T02:10:17;1009.18;;;1.94;69.17
48810;BME280;40070;47.322;18.784;2022-12-29T02:12:21;1009.16;;;1.99;68.36
48810;BME280;40070;47.322;18.784;2022-12-29T02:14:25;1009.18;;;1.99;68.11
48810;BME280;40070;47.322;18.784;2022-12-29T02:19:02;1009.15;;;2.02;67.52
48810;BME280;40070;47.322;18.784;2022-12-29T02:29:14;1009.06;;;1.29;69.22
48810;BME280;40070;47.322;18.784;2022-12-29T02:30:49;1008.96;;;1.16;70.69
48810;BME280;40070;47.322;18.784;2022-12-29T02:32:58;1008.96;;;1.27;70.92
48810;BME280;40070;47.322;18.784;2022-12-29T02:35:09;1008.94;;;1.31;70.46
48810;BME280;40070;47.322;18.784;2022-12-29T02:37:35;1008.94;;;1.21;71.15
48810;BME280;40070;47.322;18.784;2022-12-29T02:39:50;1008.91;;;1.32;70.95
48810;BME280;40070;47.322;18.784;2022-12-29T02:42:09;1008.83;;;1.50;70.78
48810;BME280;40070;47.322;18.784;2022-12-29T02:44:31;1008.84;;;1.49;70.76
48810;BME280;40070;47.322;18.784;2022-12-29T02:46:47;1008.76;;;1.38;70.35
48810;BME280;40070;47.322;18.784;2022-12-29T02:48:57;1008.75;;;1.17;71.15
48810;BME280;40070;47.322;18.784;2022-12-29T02:51:04;1008.73;;;1.28;70.92
48810;BME280;40070;47.322;18.784;2022-12-29T02:53:11;1008.75;;;1.46;70.89
48810;BME280;40070;47.322;18.784;2022-12-29T02:55:15;1008.80;;;1.37;71.36
48810;BME280;40070;47.322;18.784;2022-12-29T02:59:35;1008.76;;;1.33;71.97
48810;BME280;40070;47.322;18.784;2022-12-29T03:08:55;1008.79;;;1.66;70.33
48810;BME280;40070;47.322;18.784;2022-12-29T03:11:02;1008.77;;;1.91;69.80
48810;BME280;40070;47.322;18.784;2022-12-29T03:13:33;1008.76;;;1.70;70.35
48810;BME280;40070;47.322;18.784;2022-12-29T03:15:45;1008.82;;;1.44;71.52
48810;BME280;40070;47.322;18.784;2022-12-29T03:17:55;1008.74;;;1.65;70.71
48810;BME280;40070;47.322;18.784;2022-12-29T03:20:01;1008.72;;;1.18;72.25
48810;BME280;40070;47.322;18.784;2022-12-29T03:22:19;1008.68;;;1.70;70.99
48810;BME280;40070;47.322;18.784;2022-12-29T03:24:28;1008.65;;;1.68;70.72
48810;BME280;40070;47.322;18.784;2022-12-29T03:26:32;1008.57;;;1.93;69.74
48810;BME280;40070;47.322;18.784;2022-12-29T03:28:55;1008.58;;;1.97;69.66
48810;BME280;40070;47.322;18.784;2022-12-29T03:30:49;1008.59;;;1.89;70.15
48810;BME280;40070;47.322;18.784;2022-12-29T03:32:54;1008.58;;;1.80;70.70
48810;BME280;40070;47.322;18.784;2022-12-29T03:34:57;1008.55;;;1.74;70.55
48810;BME280;40070;47.322;18.784;2022-12-29T03:37:01;1008.60;;;1.85;70.44
48810;BME280;40070;47.322;18.784;2022-12-29T03:39:11;1008.54;;;1.30;70.68
48810;BME280;40070;47.322;18.784;2022-12-29T03:41:15;1008.51;;;0.71;72.87
48810;BME280;40070;47.322;18.784;2022-12-29T03:43:19;1008.47;;;1.09;72.55
48810;BME280;40070;47.322;18.784;2022-12-29T03:45:21;1008.55;;;1.35;71.53
48810;BME280;40070;47.322;18.784;2022-12-29T03:47:24;1008.54;;;1.29;71.38
48810;BME280;40070;47.322;18.784;2022-12-29T03:49:26;1008.51;;;1.45;71.23
48810;BME280;40070;47.322;18.784;2022-12-29T03:51:29;1008.52;;;1.45;71.31
48810;BME280;40070;47.322;18.784;2022-12-29T03:53:31;1008.51;;;1.64;70.51
48810;BME280;40070;47.322;18.784;2022-12-29T03:55:33;1008.54;;;1.65;70.04
48810;BME280;40070;47.322;18.784;2022-12-29T03:57:36;1008.59;;;1.28;71.29
48810;BME280;40070;47.322;18.784;2022-12-29T03:59:38;1008.64;;;1.33;71.57
48810;BME280;40070;47.322;18.784;2022-12-29T04:01:40;1008.64;;;1.65;70.68
48810;BME280;40070;47.322;18.784;2022-12-29T04:03:43;1008.58;;;1.53;70.78
48810;BME280;40070;47.322;18.784;2022-12-29T04:05:45;1008.56;;;1.46;70.72
48810;BME280;40070;47.322;18.784;2022-12-29T04:07:48;1008.49;;;1.20;72.20
48810;BME280;40070;47.322;18.784;2022-12-29T04:09:50;1008.60;;;1.19;72.03
48810;BME280;40070;47.322;18.784;2022-12-29T04:11:52;1008.57;;;1.23;71.77
48810;BME280;40070;47.322;18.784;2022-12-29T04:13:55;1008.57;;;0.88;72.97
48810;BME280;40070;47.322;18.784;2022-12-29T04:15:57;1008.51;;;1.00;72.37
48810;BME280;40070;47.322;18.784;2022-12-29T04:17:59;1008.57;;;1.08;72.53
48810;BME280;40070;47.322;18.784;2022-12-29T04:20:02;1008.62;;;1.40;71.25
48810;BME280;40070;47.322;18.784;2022-12-29T04:22:04;1008.62;;;1.61;70.30
48810;BME280;40070;47.322;18.784;2022-12-29T04:24:07;1008.59;;;1.41;71.08
48810;BME280;40070;47.322;18.784;2022-12-29T04:26:09;1008.59;;;1.73;70.19
48810;BME280;40070;47.322;18.784;2022-12-29T04:28:12;1008.59;;;1.48;70.52
48810;BME280;40070;47.322;18.784;2022-12-29T04:30:14;1008.65;;;1.03;72.08
48810;BME280;40070;47.322;18.784;2022-12-29T04:32:17;1008.62;;;1.53;71.58
48810;BME280;40070;47.322;18.784;2022-12-29T04:34:19;1008.64;;;1.32;71.42
48810;BME280;40070;47.322;18.784;2022-12-29T04:36:22;1008.58;;;1.34;72.27
48810;BME280;40070;47.322;18.784;2022-12-29T04:38:24;1008.63;;;1.16;72.58
48810;BME280;40070;47.322;18.784;2022-12-29T04:40:26;1008.61;;;1.26;72.28
48810;BME280;40070;47.322;18.784;2022-12-29T04:42:29;1008.61;;;1.30;71.94
48810;BME280;40070;47.322;18.784;2022-12-29T04:44:31;1008.60;;;1.11;72.70
48810;BME280;40070;47.322;18.784;2022-12-29T04:46:34;1008.60;;;1.24;72.49
48810;BME280;40070;47.322;18.784;2022-12-29T04:48:36;1008.63;;;1.37;71.99
48810;BME280;40070;47.322;18.784;2022-12-29T04:50:39;1008.58;;;1.53;71.42
48810;BME280;40070;47.322;18.784;2022-12-29T04:52:41;1008.50;;;1.59;71.41
48810;BME280;40070;47.322;18.784;2022-12-29T04:54:43;1008.55;;;1.63;70.96
48810;BME280;40070;47.322;18.784;2022-12-29T04:56:46;1008.57;;;1.40;71.24
48810;BME280;40070;47.322;18.784;2022-12-29T04:58:48;1008.57;;;1.45;71.50
48810;BME280;40070;47.322;18.784;2022-12-29T05:00:51;1008.54;;;1.48;71.07
48810;BME280;40070;47.322;18.784;2022-12-29T05:02:53;1008.56;;;1.48;71.05
48810;BME280;40070;47.322;18.784;2022-12-29T05:04:56;1008.57;;;1.32;71.59
48810;BME280;40070;47.322;18.784;2022-12-29T05:06:58;1008.60;;;1.31;71.58
48810;BME280;40070;47.322;18.784;2022-12-29T05:09:00;1008.56;;;1.09;72.56
48810;BME280;40070;47.322;18.784;2022-12-29T05:11:03;1008.47;;;1.06;72.59
48810;BME280;40070;47.322;18.784;2022-12-29T05:13:05;1008.45;;;1.06;72.54
48810;BME280;40070;47.322;18.784;2022-12-29T05:15:08;1008.40;;;0.96;73.05
48810;BME280;40070;47.322;18.784;2022-12-29T05:17:11;1008.34;;;0.80;73.40
48810;BME280;40070;47.322;18.784;2022-12-29T05:19:13;1008.38;;;0.80;74.10
48810;BME280;40070;47.322;18.784;2022-12-29T05:21:15;1008.42;;;0.71;74.04
48810;BME280;40070;47.322;18.784;2022-12-29T05:23:18;1008.39;;;0.82;73.64
48810;BME280;40070;47.322;18.784;2022-12-29T05:25:20;1008.46;;;1.22;72.34
48810;BME280;40070;47.322;18.784;2022-12-29T05:27:22;1008.50;;;1.24;71.87
48810;BME280;40070;47.322;18.784;2022-12-29T05:29:25;1008.52;;;1.58;71.40
48810;BME280;40070;47.322;18.784;2022-12-29T05:31:27;1008.47;;;1.70;70.53
48810;BME280;40070;47.322;18.784;2022-12-29T05:33:29;1008.45;;;1.45;71.10
48810;BME280;40070;47.322;18.784;2022-12-29T05:35:32;1008.41;;;1.39;70.98
48810;BME280;40070;47.322;18.784;2022-12-29T05:37:34;1008.35;;;1.31;71.05
48810;BME280;40070;47.322;18.784;2022-12-29T05:39:37;1008.30;;;1.47;71.31
48810;BME280;40070;47.322;18.784;2022-12-29T05:41:39;1008.31;;;1.01;72.22
48810;BME280;40070;47.322;18.784;2022-12-29T05:43:41;1008.35;;;1.38;71.68
48810;BME280;40070;47.322;18.784;2022-12-29T05:45:44;1008.35;;;1.37;71.64
48810;BME280;40070;47.322;18.784;2022-12-29T05:47:46;1008.32;;;1.63;70.45
48810;BME280;40070;47.322;18.784;2022-12-29T05:49:48;1008.31;;;1.48;70.71
48810;BME280;40070;47.322;18.784;2022-12-29T05:51:51;1008.33;;;1.51;70.46
48810;BME280;40070;47.322;18.784;2022-12-29T05:53:53;1008.28;;;1.32;70.85
48810;BME280;40070;47.322;18.784;2022-12-29T05:55:55;1008.29;;;1.10;71.41
48810;BME280;40070;47.322;18.784;2022-12-29T05:57:58;1008.22;;;0.68;73.01
48810;BME280;40070;47.322;18.784;2022-12-29T06:00:00;1008.24;;;1.18;72.37
48810;BME280;40070;47.322;18.784;2022-12-29T06:02:03;1008.22;;;0.95;72.49
48810;BME280;40070;47.322;18.784;2022-12-29T06:04:05;1008.28;;;1.18;71.82
48810;BME280;40070;47.322;18.784;2022-12-29T06:06:07;1008.23;;;1.27;71.33
48810;BME280;40070;47.322;18.784;2022-12-29T06:08:10;1008.28;;;1.11;72.12
48810;BME280;40070;47.322;18.784;2022-12-29T06:10:12;1008.31;;;0.92;72.47
48810;BME280;40070;47.322;18.784;2022-12-29T06:12:14;1008.29;;;1.18;72.39
48810;BME280;40070;47.322;18.784;2022-12-29T06:14:17;1008.23;;;1.33;71.34
48810;BME280;40070;47.322;18.784;2022-12-29T06:16:19;1008.28;;;1.12;71.62
48810;BME280;40070;47.322;18.784;2022-12-29T06:18:21;1008.29;;;1.17;71.34
48810;BME280;40070;47.322;18.784;2022-12-29T06:20:24;1008.30;;;1.07;71.57
48810;BME280;40070;47.322;18.784;2022-12-29T06:22:26;1008.31;;;1.40;71.13
48810;BME280;40070;47.322;18.784;2022-12-29T06:24:29;1008.33;;;1.30;70.91
48810;BME280;40070;47.322;18.784;2022-12-29T06:26:31;1008.39;;;1.28;71.45
48810;BME280;40070;47.322;18.784;2022-12-29T06:28:33;1008.41;;;1.30;71.11
48810;BME280;40070;47.322;18.784;2022-12-29T06:30:36;1008.43;;;1.51;70.86
48810;BME280;40070;47.322;18.784;2022-12-29T06:32:38;1008.40;;;1.51;70.42
48810;BME280;40070;47.322;18.784;2022-12-29T06:34:41;1008.46;;;1.30;70.77
48810;BME280;40070;47.322;18.784;2022-12-29T06:36:43;1008.44;;;1.47;70.82
48810;BME280;40070;47.322;18.784;2022-12-29T06:38:45;1008.44;;;1.07;71.89
48810;BME280;40070;47.322;18.784;2022-12-29T06:40:48;1008.47;;;1.27;71.79
48810;BME280;40070;47.322;18.784;2022-12-29T06:42:50;1008.52;;;0.90;72.26
48810;BME280;40070;47.322;18.784;2022-12-29T06:44:52;1008.49;;;1.35;71.30
48810;BME280;40070;47.322;18.784;2022-12-29T06:46:55;1008.52;;;1.28;71.79
48810;BME280;40070;47.322;18.784;2022-12-29T06:48:57;1008.55;;;1.26;71.66
48810;BME280;40070;47.322;18.784;2022-12-29T06:50:59;1008.55;;;1.32;71.75
48810;BME280;40070;47.322;18.784;2022-12-29T06:53:02;1008.58;;;1.49;71.36
48810;BME280;40070;47.322;18.784;2022-12-29T06:55:04;1008.61;;;1.19;72.13
48810;BME280;40070;47.322;18.784;2022-12-29T06:57:07;1008.66;;;0.85;73.17
48810;BME280;40070;47.322;18.784;2022-12-29T06:59:09;1008.60;;;0.88;73.38
48810;BME280;40070;47.322;18.784;2022-12-29T07:01:12;1008.68;;;1.17;73.03
48810;BME280;40070;47.322;18.784;2022-12-29T07:03:14;1008.67;;;1.24;72.63
48810;BME280;40070;47.322;18.784;2022-12-29T07:05:16;1008.71;;;1.28;72.70
48810;BME280;40070;47.322;18.784;2022-12-29T07:07:19;1008.70;;;1.12;72.98
48810;BME280;40070;47.322;18.784;2022-12-29T07:09:21;1008.72;;;1.21;73.23
48810;BME280;40070;47.322;18.784;2022-12-29T07:11:24;1008.74;;;1.16;72.94
48810;BME280;40070;47.322;18.784;2022-12-29T07:13:26;1008.76;;;1.40;72.45
48810;BME280;40070;47.322;18.784;2022-12-29T07:15:28;1008.69;;;0.97;73.31
48810;BME280;40070;47.322;18.784;2022-12-29T07:17:31;1008.75;;;1.28;72.89
48810;BME280;40070;47.322;18.784;2022-12-29T07:19:33;1008.76;;;1.30;72.68
48810;BME280;40070;47.322;18.784;2022-12-29T07:21:35;1008.77;;;1.26;72.85
48810;BME280;40070;47.322;18.784;2022-12-29T07:23:38;1008.78;;;1.61;72.04
48810;BME280;40070;47.322;18.784;2022-12-29T07:25:40;1008.76;;;1.55;71.87
48810;BME280;40070;47.322;18.784;2022-12-29T07:27:42;1008.74;;;1.53;72.12
48810;BME280;40070;47.322;18.784;2022-12-29T07:29:45;1008.76;;;1.43;72.52
48810;BME280;40070;47.322;18.784;2022-12-29T07:31:47;1008.70;;;1.37;72.79
48810;BME280;40070;47.322;18.784;2022-12-29T07:33:50;1008.77;;;1.31;73.06
48810;BME280;40070;47.322;18.784;2022-12-29T07:35:52;1008.68;;;1.18;73.78
48810;BME280;40070;47.322;18.784;2022-12-29T07:37:54;1008.66;;;1.60;72.86
48810;BME280;40070;47.322;18.784;2022-12-29T07:39:57;1008.71;;;1.34;73.24
48810;BME280;40070;47.322;18.784;2022-12-29T07:41:59;1008.68;;;1.26;74.05
48810;BME280;40070;47.322;18.784;2022-12-29T07:44:01;1008.65;;;1.46;73.14
48810;BME280;40070;47.322;18.784;2022-12-29T07:46:04;1008.61;;;1.57;73.21
48810;BME280;40070;47.322;18.784;2022-12-29T07:48:06;1008.67;;;1.18;74.27
48810;BME280;40070;47.322;18.784;2022-12-29T07:50:08;1008.70;;;1.37;74.10
48810;BME280;40070;47.322;18.784;2022-12-29T07:52:11;1008.76;;;1.66;73.37
48810;BME280;40070;47.322;18.784;2022-12-29T07:54:13;1008.71;;;1.81;73.05
48810;BME280;40070;47.322;18.784;2022-12-29T07:56:15;1008.71;;;2.10;72.13
48810;BME280;40070;47.322;18.784;2022-12-29T07:58:18;1008.66;;;1.96;72.10
48810;BME280;40070;47.322;18.784;2022-12-29T08:00:20;1008.70;;;1.81;72.64
48810;BME280;40070;47.322;18.784;2022-12-29T08:02:22;1008.67;;;1.84;72.59
48810;BME280;40070;47.322;18.784;2022-12-29T08:04:25;1008.70;;;1.85;72.39
48810;BME280;40070;47.322;18.784;2022-12-29T08:06:27;1008.71;;;1.83;72.42
48810;BME280;40070;47.322;18.784;2022-12-29T08:08:30;1008.72;;;1.79;72.49
48810;BME280;40070;47.322;18.784;2022-12-29T08:10:32;1008.68;;;1.77;72.55
48810;BME280;40070;47.322;18.784;2022-12-29T08:12:34;1008.67;;;1.65;72.84
48810;BME280;40070;47.322;18.784;2022-12-29T08:14:37;1008.69;;;1.74;72.68
48810;BME280;40070;47.322;18.784;2022-12-29T08:16:39;1008.64;;;1.84;72.55
48810;BME280;40070;47.322;18.784;2022-12-29T08:18:41;1008.62;;;1.98;72.21
48810;BME280;40070;47.322;18.784;2022-12-29T08:20:44;1008.67;;;1.70;72.47
48810;BME280;40070;47.322;18.784;2022-12-29T08:22:46;1008.62;;;1.77;73.12
48810;BME280;40070;47.322;18.784;2022-12-29T08:24:48;1008.56;;;1.74;73.07
48810;BME280;40070;47.322;18.784;2022-12-29T08:26:51;1008.64;;;1.72;73.29
48810;BME280;40070;47.322;18.784;2022-12-29T08:28:53;1008.64;;;1.75;73.38
48810;BME280;40070;47.322;18.784;2022-12-29T08:31:04;1008.56;;;1.87;73.69
48810;BME280;40070;47.322;18.784;2022-12-29T08:33:07;1008.52;;;1.78;73.45
48810;BME280;40070;47.322;18.784;2022-12-29T08:35:09;1008.50;;;1.89;72.92
48810;BME280;40070;47.322;18.784;2022-12-29T08:37:12;1008.48;;;1.83;73.05
48810;BME280;40070;47.322;18.784;2022-12-29T08:39:14;1008.45;;;1.84;73.15
48810;BME280;40070;47.322;18.784;2022-12-29T08:41:16;1008.46;;;2.02;73.08
48810;BME280;40070;47.322;18.784;2022-12-29T08:43:19;1008.35;;;2.08;72.95
48810;BME280;40070;47.322;18.784;2022-12-29T08:45:21;1008.35;;;2.11;72.73
48810;BME280;40070;47.322;18.784;2022-12-29T08:47:24;1008.35;;;2.16;72.94
48810;BME280;40070;47.322;18.784;2022-12-29T08:49:26;1008.39;;;2.44;71.74
48810;BME280;40070;47.322;18.784;2022-12-29T08:51:28;1008.34;;;2.55;71.63
48810;BME280;40070;47.322;18.784;2022-12-29T08:53:31;1008.37;;;2.52;72.13
48810;BME280;40070;47.322;18.784;2022-12-29T08:55:33;1008.35;;;2.58;71.01
48810;BME280;40070;47.322;18.784;2022-12-29T08:57:35;1008.34;;;2.86;70.62
48810;BME280;40070;47.322;18.784;2022-12-29T08:59:38;1008.39;;;2.84;70.78
48810;BME280;40070;47.322;18.784;2022-12-29T09:01:40;1008.40;;;3.00;69.71
48810;BME280;40070;47.322;18.784;2022-12-29T09:03:42;1008.32;;;2.93;69.68
48810;BME280;40070;47.322;18.784;2022-12-29T09:05:48;1008.31;;;3.18;69.80
48810;BME280;40070;47.322;18.784;2022-12-29T09:07:51;1008.31;;;2.98;69.83
48810;BME280;40070;47.322;18.784;2022-12-29T09:09:53;1008.30;;;3.08;69.98
48810;BME280;40070;47.322;18.784;2022-12-29T09:11:55;1008.28;;;2.70;70.27
48810;BME280;40070;47.322;18.784;2022-12-29T09:13:58;1008.33;;;2.86;70.29
48810;BME280;40070;47.322;18.784;2022-12-29T09:16:00;1008.34;;;3.03;69.59
48810;BME280;40070;47.322;18.784;2022-12-29T09:18:03;1008.29;;;2.83;69.99
48810;BME280;40070;47.322;18.784;2022-12-29T09:20:05;1008.28;;;3.04;69.83
48810;BME280;40070;47.322;18.784;2022-12-29T09:22:08;1008.28;;;2.90;70.43
48810;BME280;40070;47.322;18.784;2022-12-29T09:24:10;1008.33;;;3.16;69.52
48810;BME280;40070;47.322;18.784;2022-12-29T09:26:12;1008.28;;;2.87;70.27
48810;BME280;40070;47.322;18.784;2022-12-29T09:28:15;1008.37;;;3.18;69.58
48810;BME280;40070;47.322;18.784;2022-12-29T09:30:17;1008.24;;;2.68;70.91
48810;BME280;40070;47.322;18.784;2022-12-29T09:32:20;1008.21;;;2.99;70.17
48810;BME280;40070;47.322;18.784;2022-12-29T09:34:22;1008.15;;;3.07;70.08
48810;BME280;40070;47.322;18.784;2022-12-29T09:36:24;1008.18;;;2.84;70.33
48810;BME280;40070;47.322;18.784;2022-12-29T09:38:27;1008.17;;;3.25;69.97
48810;BME280;40070;47.322;18.784;2022-12-29T09:40:31;1008.17;;;3.36;69.58
48810;BME280;40070;47.322;18.784;2022-12-29T09:42:52;1008.06;;;3.37;69.16
48810;BME280;40070;47.322;18.784;2022-12-29T09:47:13;1007.97;;;3.43;69.09
48810;BME280;40070;47.322;18.784;2022-12-29T09:49:24;1007.96;;;3.67;68.36
48810;BME280;40070;47.322;18.784;2022-12-29T09:51:28;1007.97;;;3.46;68.28
48810;BME280;40070;47.322;18.784;2022-12-29T09:53:44;1007.95;;;3.66;68.27
48810;BME280;40070;47.322;18.784;2022-12-29T09:55:49;1007.90;;;3.95;67.83
48810;BME280;40070;47.322;18.784;2022-12-29T09:57:54;1007.87;;;3.86;67.59
48810;BME280;40070;47.322;18.784;2022-12-29T10:00:09;1007.83;;;3.93;67.25
48810;BME280;40070;47.322;18.784;2022-12-29T10:02:36;1007.77;;;3.94;66.88
48810;BME280;40070;47.322;18.784;2022-12-29T10:04:40;1007.70;;;4.23;66.88
48810;BME280;40070;47.322;18.784;2022-12-29T10:06:51;1007.64;;;4.43;65.91
48810;BME280;40070;47.322;18.784;2022-12-29T10:08:57;1007.63;;;4.73;65.60
48810;BME280;40070;47.322;18.784;2022-12-29T10:15:40;1007.66;;;5.25;63.06
48810;BME280;40070;47.322;18.784;2022-12-29T10:17:52;1007.72;;;5.58;62.79
48810;BME280;40070;47.322;18.784;2022-12-29T10:22:30;1007.75;;;6.38;59.97
48810;BME280;40070;47.322;18.784;2022-12-29T10:24:34;1007.75;;;6.38;60.02
48810;BME280;40070;47.322;18.784;2022-12-29T10:26:40;1007.67;;;6.38;59.46
48810;BME280;40070;47.322;18.784;2022-12-29T10:28:47;1007.59;;;5.93;60.36
48810;BME280;40070;47.322;18.784;2022-12-29T10:30:52;1007.53;;;5.91;60.89
48810;BME280;40070;47.322;18.784;2022-12-29T10:33:00;1007.50;;;6.29;59.93
48810;BME280;40070;47.322;18.784;2022-12-29T10:35:14;1007.51;;;6.49;59.42
48810;BME280;40070;47.322;18.784;2022-12-29T10:37:27;1007.55;;;7.06;58.15
48810;BME280;40070;47.322;18.784;2022-12-29T10:44:00;1007.59;;;7.37;56.57
48810;BME280;40070;47.322;18.784;2022-12-29T10:46:04;1007.51;;;7.26;56.90
48810;BME280;40070;47.322;18.784;2022-12-29T10:48:13;1007.48;;;7.27;56.92
48810;BME280;40070;47.322;18.784;2022-12-29T10:50:21;1007.45;;;6.95;57.26
48810;BME280;40070;47.322;18.784;2022-12-29T10:52:24;1007.43;;;7.03;57.93
48810;BME280;40070;47.322;18.784;2022-12-29T10:54:39;1007.38;;;7.31;57.30
48810;BME280;40070;47.322;18.784;2022-12-29T10:56:43;1007.27;;;8.16;55.30
48810;BME280;40070;47.322;18.784;2022-12-29T10:58:48;1007.18;;;8.05;55.28
48810;BME280;40070;47.322;18.784;2022-12-29T11:00:52;1007.17;;;8.11;55.11
48810;BME280;40070;47.322;18.784;2022-12-29T11:03:02;1007.19;;;8.72;53.83
48810;BME280;40070;47.322;18.784;2022-12-29T11:05:24;1007.18;;;9.04;52.76
48810;BME280;40070;47.322;18.784;2022-12-29T11:07:30;1007.16;;;9.29;51.27
48810;BME280;40070;47.322;18.784;2022-12-29T11:09:33;1007.18;;;9.00;52.41
48810;BME280;40070;47.322;18.784;2022-12-29T11:11:37;1007.21;;;8.59;52.96
48810;BME280;40070;47.322;18.784;2022-12-29T11:13:47;1007.21;;;8.68;53.03
48810;BME280;40070;47.322;18.784;2022-12-29T11:15:50;1007.17;;;8.96;52.75
48810;BME280;40070;47.322;18.784;2022-12-29T11:17:55;1007.19;;;9.16;52.33
48810;BME280;40070;47.322;18.784;2022-12-29T11:19:58;1007.22;;;9.01;52.86
48810;BME280;40070;47.322;18.784;2022-12-29T11:22:20;1007.18;;;8.52;53.48
48810;BME280;40070;47.322;18.784;2022-12-29T11:24:20;1007.16;;;8.76;53.35
48810;BME280;40070;47.322;18.784;2022-12-29T11:26:23;1007.12;;;9.04;52.35
48810;BME280;40070;47.322;18.784;2022-12-29T11:28:25;1007.02;;;8.28;54.08
48810;BME280;40070;47.322;18.784;2022-12-29T11:30:29;1007.02;;;7.72;56.08
48810;BME280;40070;47.322;18.784;2022-12-29T11:32:31;1007.02;;;7.24;57.50
48810;BME280;40070;47.322;18.784;2022-12-29T11:34:34;1007.03;;;7.42;57.50
48810;BME280;40070;47.322;18.784;2022-12-29T11:36:37;1007.03;;;7.03;58.28
48810;BME280;40070;47.322;18.784;2022-12-29T11:38:41;1007.00;;;7.06;58.44